createdAt,value
2022-10-23T00:01:45.604Z,55.10
2022-10-23T00:04:19.428Z,52.60
2022-10-23T00:06:48.963Z,51.80
2022-10-23T00:09:21.204Z,50.00
2022-10-23T00:11:50.646Z,49.10
2022-10-23T00:14:21.719Z,48.40
2022-10-23T00:16:50.620Z,47.20
2022-10-23T00:19:18.960Z,46.60
2022-10-23T00:21:47.315Z,46.90
2022-10-23T00:24:15.676Z,51.30
2022-10-23T00:26:44.041Z,54.20
2022-10-23T00:29:12.561Z,56.10
2022-10-23T00:31:40.863Z,57.50
2022-10-23T00:34:09.334Z,58.20
2022-10-23T00:36:38.079Z,58.60
2022-10-23T00:39:07.246Z,54.20
2022-10-23T00:41:35.586Z,52.10
2022-10-23T00:44:09.743Z,51.60
2022-10-23T00:46:39.422Z,57.00
2022-10-23T00:49:08.663Z,59.50
2022-10-23T00:51:43.745Z,61.00
2022-10-23T00:54:29.675Z,61.40
2022-10-23T00:57:01.205Z,61.30
2022-10-23T00:59:30.325Z,55.90
2022-10-23T01:01:59.846Z,53.30
2022-10-23T01:04:29.698Z,52.10
2022-10-23T01:07:13.515Z,50.70
2022-10-23T01:10:00.194Z,50.10
2022-10-23T01:12:31.471Z,49.70
2022-10-23T01:15:14.413Z,47.70
2022-10-23T01:18:25.276Z,47.00
2022-10-23T01:21:38.443Z,49.20
2022-10-23T01:24:17.689Z,54.20
2022-10-23T01:27:04.927Z,56.60
2022-10-23T01:29:44.287Z,57.80
2022-10-23T01:32:31.597Z,58.50
2022-10-23T01:35:18.868Z,58.80
2022-10-23T01:38:12.697Z,56.30
2022-10-23T01:40:58.719Z,52.30
2022-10-23T01:43:39.601Z,51.70
2022-10-23T01:46:11.596Z,56.80
2022-10-23T01:48:43.599Z,59.60
2022-10-23T01:51:15.304Z,60.90
2022-10-23T01:53:47.010Z,61.00
2022-10-23T01:56:24.695Z,60.70
2022-10-23T01:58:57.148Z,56.50
2022-10-23T02:01:30.699Z,54.00
2022-10-23T02:04:01.659Z,52.20
2022-10-23T02:06:30.313Z,50.80
2022-10-23T02:08:58.715Z,49.70
2022-10-23T02:11:27.635Z,50.30
2022-10-23T02:14:14.147Z,54.20
2022-10-23T02:16:54.300Z,57.20
2022-10-23T02:19:38.386Z,59.30
2022-10-23T02:22:31.017Z,60.70
2022-10-23T02:25:10.188Z,61.90
2022-10-23T02:27:55.807Z,62.30
2022-10-23T02:30:31.294Z,62.50
2022-10-23T02:33:10.967Z,58.30
2022-10-23T02:35:39.280Z,55.00
2022-10-23T02:38:31.956Z,53.20
2022-10-23T02:41:19.958Z,51.80
2022-10-23T02:43:55.382Z,51.80
2022-10-23T02:46:36.377Z,56.90
2022-10-23T02:49:15.922Z,59.20
2022-10-23T02:51:47.352Z,61.10
2022-10-23T02:54:49.653Z,62.60
2022-10-23T02:57:46.607Z,63.40
2022-10-23T03:00:17.601Z,64.00
2022-10-23T03:02:57.271Z,64.10
2022-10-23T03:05:32.711Z,59.60
2022-10-23T03:08:03.688Z,55.70
2022-10-23T03:10:32.016Z,54.30
2022-10-23T03:13:00.252Z,53.70
2022-10-23T03:15:33.335Z,57.80
2022-10-23T03:18:01.677Z,60.80
2022-10-23T03:20:30.089Z,62.30
2022-10-23T03:22:58.237Z,63.50
2022-10-23T03:25:28.045Z,64.50
2022-10-23T03:27:58.733Z,65.20
2022-10-23T03:30:27.244Z,65.40
2022-10-23T03:32:55.793Z,64.40
2022-10-23T03:35:24.055Z,58.60
2022-10-23T03:37:52.119Z,56.30
2022-10-23T03:40:21.713Z,54.80
2022-10-23T03:42:49.848Z,53.60
2022-10-23T03:45:20.788Z,53.10
2022-10-23T03:47:49.987Z,57.90
2022-10-23T03:50:21.245Z,60.40
2022-10-23T03:52:49.712Z,61.70
2022-10-23T03:55:18.747Z,63.10
2022-10-23T03:57:47.280Z,64.10
2022-10-23T04:00:16.111Z,64.70
2022-10-23T04:02:44.704Z,65.20
2022-10-23T04:05:13.625Z,65.30
2022-10-23T04:07:50.615Z,61.20
2022-10-23T04:10:19.045Z,57.50
2022-10-23T04:12:47.247Z,55.70
2022-10-23T04:15:15.391Z,54.10
2022-10-23T04:17:46.978Z,54.80
2022-10-23T04:20:15.219Z,59.70
2022-10-23T04:22:43.678Z,62.30
2022-10-23T04:25:12.445Z,63.10
2022-10-23T04:27:40.951Z,64.30
2022-10-23T04:30:10.139Z,65.30
2022-10-23T04:32:39.551Z,66.10
2022-10-23T04:35:08.347Z,67.20
2022-10-23T04:37:36.525Z,66.80
2022-10-23T04:40:05.020Z,66.20
2022-10-23T04:42:36.237Z,60.20
2022-10-23T04:45:05.604Z,57.20
2022-10-23T04:47:34.387Z,55.60
2022-10-23T04:50:04.347Z,54.40
2022-10-23T04:52:55.764Z,53.60
2022-10-23T04:55:52.388Z,58.00
2022-10-23T04:58:46.478Z,61.40
2022-10-23T05:01:15.151Z,63.30
2022-10-23T05:03:43.433Z,64.90
2022-10-23T05:06:11.964Z,65.90
2022-10-23T05:08:51.450Z,66.70
2022-10-23T05:11:39.863Z,66.80
2022-10-23T05:14:10.135Z,67.10
2022-10-23T05:17:09.600Z,64.90
2022-10-23T05:19:47.248Z,59.90
2022-10-23T05:22:15.986Z,57.20
2022-10-23T05:24:50.902Z,55.60
2022-10-23T05:27:23.308Z,54.40
2022-10-23T05:29:53.377Z,57.50
2022-10-23T05:32:28.044Z,60.80
2022-10-23T05:34:56.733Z,62.80
2022-10-23T05:37:28.816Z,64.10
2022-10-23T05:40:10.620Z,65.20
2022-10-23T05:42:41.816Z,66.20
2022-10-23T05:45:12.342Z,66.80
2022-10-23T05:48:10.661Z,67.00
2022-10-23T05:51:10.750Z,67.20
2022-10-23T05:53:59.122Z,61.20
2022-10-23T05:56:36.449Z,58.00
2022-10-23T05:59:11.687Z,56.20
2022-10-23T06:01:51.350Z,56.90
2022-10-23T06:04:49.636Z,61.90
2022-10-23T06:07:30.230Z,63.80
2022-10-23T06:10:02.327Z,65.10
2022-10-23T06:12:32.485Z,66.20
2022-10-23T06:15:01.156Z,67.20
2022-10-23T06:17:47.220Z,68.00
2022-10-23T06:20:15.591Z,68.20
2022-10-23T06:22:45.951Z,68.00
2022-10-23T06:25:30.615Z,63.80
2022-10-23T06:27:59.360Z,59.90
2022-10-23T06:30:28.527Z,57.20
2022-10-23T06:32:56.818Z,56.10
2022-10-23T06:35:25.130Z,58.90
2022-10-23T06:37:53.340Z,63.00
2022-10-23T06:40:34.458Z,64.70
2022-10-23T06:43:06.668Z,66.00
2022-10-23T06:45:53.217Z,67.10
2022-10-23T06:48:53.083Z,68.20
2022-10-23T06:51:26.251Z,68.80
2022-10-23T06:53:54.437Z,68.90
2022-10-23T06:56:40.989Z,68.90
2022-10-23T06:59:10.637Z,62.20
2022-10-23T07:01:39.741Z,59.50
2022-10-23T07:04:09.115Z,57.40
2022-10-23T07:06:37.633Z,56.70
2022-10-23T07:09:06.763Z,60.70
2022-10-23T07:11:54.752Z,63.70
2022-10-23T07:14:29.816Z,65.30
2022-10-23T07:16:59.428Z,66.50
2022-10-23T07:19:29.237Z,67.50
2022-10-23T07:21:58.960Z,68.40
2022-10-23T07:24:35.749Z,69.00
2022-10-23T07:27:08.923Z,69.20
2022-10-23T07:29:37.099Z,69.10
2022-10-23T07:32:05.835Z,64.60
2022-10-23T07:34:52.482Z,60.30
2022-10-23T07:37:31.320Z,58.80
2022-10-23T07:40:02.554Z,56.60
2022-10-23T07:42:33.281Z,58.70
2022-10-23T07:45:01.265Z,62.90
2022-10-23T07:47:30.520Z,64.70
2022-10-23T07:50:00.982Z,66.00
2022-10-23T07:52:32.083Z,66.90
2022-10-23T07:55:10.952Z,68.10
2022-10-23T07:57:46.791Z,68.70
2022-10-23T08:00:33.107Z,68.90
2022-10-23T08:03:12.343Z,69.20
2022-10-23T08:05:40.357Z,68.90
2022-10-23T08:08:08.671Z,62.50
2022-10-23T08:10:39.492Z,59.50
2022-10-23T08:13:13.615Z,57.70
2022-10-23T08:15:53.343Z,59.30
2022-10-23T08:18:47.172Z,63.60
2022-10-23T08:21:16.258Z,65.40
2022-10-23T08:23:45.866Z,66.70
2022-10-23T08:26:14.346Z,67.70
2022-10-23T08:28:42.677Z,68.50
2022-10-23T08:31:14.888Z,69.20
2022-10-23T08:33:52.746Z,69.60
2022-10-23T08:36:25.499Z,69.60
2022-10-23T08:38:55.521Z,66.90
2022-10-23T08:41:37.701Z,61.60
2022-10-23T08:44:19.505Z,59.40
2022-10-23T08:47:11.064Z,57.60
2022-10-23T08:49:59.924Z,60.80
2022-10-23T08:52:51.077Z,64.80
2022-10-23T08:55:25.499Z,66.40
2022-10-23T08:58:18.071Z,67.60
2022-10-23T09:00:51.006Z,68.80
2022-10-23T09:03:19.457Z,69.90
2022-10-23T09:06:10.119Z,70.40
2022-10-23T09:09:15.586Z,70.60
2022-10-23T09:12:11.031Z,70.40
2022-10-23T09:15:02.363Z,62.70
2022-10-23T09:17:36.074Z,60.70
2022-10-23T09:20:19.625Z,58.60
2022-10-23T09:22:50.578Z,57.40
2022-10-23T09:25:25.205Z,60.70
2022-10-23T09:28:05.209Z,64.00
2022-10-23T09:30:42.288Z,66.10
2022-10-23T09:33:28.811Z,67.60
2022-10-23T09:36:08.856Z,69.00
2022-10-23T09:38:40.291Z,70.20
2022-10-23T09:41:22.297Z,71.00
2022-10-23T09:44:08.500Z,71.50
2022-10-23T09:46:47.223Z,71.70
2022-10-23T09:49:34.791Z,66.40
2022-10-23T09:52:22.748Z,63.00
2022-10-23T09:55:02.884Z,61.10
2022-10-23T09:57:49.838Z,59.70
2022-10-23T10:00:22.834Z,58.00
2022-10-23T10:03:01.194Z,56.80
2022-10-23T10:05:41.792Z,57.70
2022-10-23T10:08:22.751Z,62.10
2022-10-23T10:10:52.811Z,65.00
2022-10-23T10:13:35.773Z,66.40
2022-10-23T10:16:16.591Z,68.10
2022-10-23T10:18:57.424Z,69.20
2022-10-23T10:21:43.997Z,70.80
2022-10-23T10:24:33.290Z,71.90
2022-10-23T10:27:43.170Z,72.50
2022-10-23T10:30:20.987Z,71.40
2022-10-23T10:33:18.906Z,64.90
2022-10-23T10:35:55.769Z,62.00
2022-10-23T10:38:44.910Z,61.10
2022-10-23T10:41:34.370Z,58.90
2022-10-23T10:44:35.881Z,57.40
2022-10-23T10:47:20.943Z,55.90
2022-10-23T10:50:43.699Z,54.50
2022-10-23T10:53:34.471Z,53.20
2022-10-23T10:56:05.838Z,52.10
2022-10-23T10:58:48.417Z,51.80
2022-10-23T11:01:25.673Z,51.00
2022-10-23T11:04:11.785Z,50.70
2022-10-23T11:06:42.417Z,54.70
2022-10-23T11:09:30.573Z,58.40
2022-10-23T11:12:00.075Z,61.00
2022-10-23T11:14:32.404Z,63.10
2022-10-23T11:17:26.509Z,64.20
2022-10-23T11:20:17.355Z,65.40
2022-10-23T11:23:03.904Z,66.30
2022-10-23T11:25:50.514Z,66.80
2022-10-23T11:28:46.915Z,67.10
2022-10-23T11:31:37.339Z,62.20
2022-10-23T11:34:33.491Z,59.30
2022-10-23T11:37:03.305Z,57.10
2022-10-23T11:39:36.221Z,55.50
2022-10-23T11:42:10.057Z,55.00
2022-10-23T11:44:51.525Z,53.30
2022-10-23T11:47:40.371Z,52.30
2022-10-23T11:50:08.894Z,51.50
2022-10-23T11:52:50.338Z,50.50
2022-10-23T11:55:30.456Z,49.80
2022-10-23T11:58:19.470Z,48.70
2022-10-23T12:00:56.798Z,48.70
2022-10-23T12:03:54.588Z,50.00
2022-10-23T12:06:39.959Z,55.50
2022-10-23T12:09:27.776Z,58.50
2022-10-23T12:12:35.483Z,60.80
2022-10-23T12:15:12.718Z,62.80
2022-10-23T12:17:43.498Z,64.30
2022-10-23T12:20:12.129Z,64.90
2022-10-23T12:23:05.187Z,65.50
2022-10-23T12:25:39.534Z,65.20
2022-10-23T12:28:22.993Z,61.70
2022-10-23T12:31:17.424Z,58.50
2022-10-23T12:33:57.714Z,57.10
2022-10-23T12:36:44.157Z,55.20
2022-10-23T12:39:31.693Z,54.10
2022-10-23T12:42:01.401Z,52.80
2022-10-23T12:44:30.505Z,51.80
2022-10-23T12:47:01.889Z,50.80
2022-10-23T12:49:31.987Z,50.50
2022-10-23T12:52:15.816Z,49.50
2022-10-23T12:54:44.282Z,48.70
2022-10-23T12:57:25.237Z,48.60
2022-10-23T13:00:09.830Z,48.10
2022-10-23T13:02:38.401Z,47.70
2022-10-23T13:05:09.500Z,49.30
2022-10-23T13:07:43.234Z,53.60
2022-10-23T13:10:16.501Z,56.50
2022-10-23T13:13:06.435Z,58.90
2022-10-23T13:15:43.333Z,60.80
2022-10-23T13:18:13.619Z,62.10
2022-10-23T13:20:58.108Z,63.00
2022-10-23T13:23:36.160Z,63.30
2022-10-23T13:26:24.155Z,60.60
2022-10-23T13:28:52.529Z,57.00
2022-10-23T13:31:36.664Z,56.00
2022-10-23T13:34:14.868Z,60.90
2022-10-23T13:36:56.152Z,64.20
2022-10-23T13:39:30.005Z,66.00
2022-10-23T13:42:06.824Z,67.10
2022-10-23T13:44:34.966Z,66.50
2022-10-23T13:47:03.255Z,60.80
2022-10-23T13:49:31.441Z,58.70
2022-10-23T13:51:59.654Z,56.90
2022-10-23T13:54:30.565Z,55.50
2022-10-23T13:56:58.813Z,54.00
2022-10-23T13:59:27.041Z,53.00
2022-10-23T14:01:55.480Z,52.00
2022-10-23T14:04:23.919Z,50.80
2022-10-23T14:06:52.099Z,50.00
2022-10-23T14:09:20.248Z,49.60
2022-10-23T14:11:48.394Z,48.80
2022-10-23T14:14:16.602Z,48.20
2022-10-23T14:16:44.909Z,47.50
2022-10-23T14:19:13.128Z,47.40
2022-10-23T14:21:41.369Z,46.60
2022-10-23T14:24:09.727Z,46.60
2022-10-23T14:26:37.917Z,46.50
2022-10-23T14:29:11.431Z,46.80
2022-10-23T14:31:44.536Z,46.40
2022-10-23T14:34:12.655Z,45.70
2022-10-23T14:36:49.904Z,46.30
2022-10-23T14:39:19.016Z,49.30
2022-10-23T14:41:47.243Z,52.30
2022-10-23T14:44:15.427Z,55.20
2022-10-23T14:46:43.679Z,57.10
2022-10-23T14:49:11.925Z,59.60
2022-10-23T14:51:40.146Z,55.40
2022-10-23T14:54:08.980Z,52.60
2022-10-23T14:56:37.632Z,52.20
2022-10-23T14:59:06.067Z,56.60
2022-10-23T15:01:41.237Z,59.50
2022-10-23T15:04:13.287Z,61.30
2022-10-23T15:06:41.535Z,62.60
2022-10-23T15:09:09.880Z,62.10
2022-10-23T15:11:37.899Z,57.40
2022-10-23T15:14:06.161Z,55.40
2022-10-23T15:16:34.434Z,54.10
2022-10-23T15:19:02.559Z,52.80
2022-10-23T15:21:30.813Z,51.60
2022-10-23T15:24:01.722Z,51.10
2022-10-23T15:26:29.869Z,50.10
2022-10-23T15:29:00.995Z,49.30
2022-10-23T15:31:38.060Z,48.70
2022-10-23T15:34:08.027Z,48.40
2022-10-23T15:36:36.214Z,47.80
2022-10-23T15:39:08.628Z,47.10
2022-10-23T15:41:38.449Z,48.00
2022-10-23T15:44:07.887Z,51.90
2022-10-23T15:46:36.604Z,55.20
2022-10-23T15:49:05.518Z,51.30
2022-10-23T15:51:33.716Z,49.30
2022-10-23T15:54:02.062Z,51.40
2022-10-23T15:56:30.200Z,55.20
2022-10-23T15:58:58.722Z,58.40
2022-10-23T16:01:27.020Z,56.30
2022-10-23T16:03:55.539Z,52.90
2022-10-23T16:06:24.180Z,51.00
2022-10-23T16:08:55.253Z,49.90
2022-10-23T16:11:29.825Z,49.20
2022-10-23T16:14:00.072Z,48.40
2022-10-23T16:16:29.485Z,48.10
2022-10-23T16:19:00.399Z,47.40
2022-10-23T16:21:30.619Z,47.30
2022-10-23T16:23:59.928Z,48.50
2022-10-23T16:26:30.243Z,52.90
2022-10-23T16:29:01.053Z,50.80
2022-10-23T16:31:29.817Z,49.20
2022-10-23T16:36:34.828Z,53.90
2022-10-23T16:39:18.095Z,56.80
2022-10-23T16:42:05.127Z,56.00
2022-10-23T16:45:02.549Z,51.50
2022-10-23T16:47:36.999Z,50.00
2022-10-23T16:50:05.508Z,48.80
2022-10-23T16:52:33.572Z,47.80
2022-10-23T16:55:01.842Z,48.10
2022-10-23T16:57:30.042Z,47.50
2022-10-23T16:59:58.324Z,46.70
2022-10-23T17:02:26.736Z,46.60
2022-10-23T17:04:56.328Z,50.70
2022-10-23T17:07:24.457Z,48.90
2022-10-23T17:09:52.642Z,47.50
2022-10-23T17:12:20.754Z,48.20
2022-10-23T17:14:49.029Z,52.00
2022-10-23T17:17:17.149Z,49.90
2022-10-23T17:19:46.487Z,48.60
2022-10-23T17:22:16.140Z,47.80
2022-10-23T17:24:47.472Z,47.80
2022-10-23T17:27:18.436Z,47.70
2022-10-23T17:29:46.637Z,47.30
2022-10-23T17:32:15.042Z,47.10
2022-10-23T17:34:43.129Z,50.10
2022-10-23T17:37:11.378Z,47.50
2022-10-23T17:39:41.658Z,47.30
2022-10-23T17:42:10.344Z,49.20
2022-10-23T17:44:38.516Z,53.40
2022-10-23T17:47:06.840Z,50.00
2022-10-23T17:49:35.107Z,48.60
2022-10-23T17:52:03.113Z,47.90
2022-10-23T17:54:31.673Z,48.20
2022-10-23T17:57:00.077Z,47.10
2022-10-23T17:59:28.723Z,46.70
2022-10-23T18:01:57.135Z,47.30
2022-10-23T18:04:25.679Z,51.80
2022-10-23T18:06:54.657Z,50.10
2022-10-23T18:09:23.495Z,48.60
2022-10-23T18:11:51.977Z,48.80
2022-10-23T18:14:21.904Z,53.20
2022-10-23T18:16:51.034Z,56.60
2022-10-23T18:19:19.839Z,56.90
2022-10-23T18:21:48.908Z,52.30
2022-10-23T18:24:18.095Z,51.30
2022-10-23T18:26:47.178Z,50.20
2022-10-23T18:29:16.810Z,50.00
2022-10-23T18:31:46.090Z,49.30
2022-10-23T18:34:25.604Z,48.50
2022-10-23T18:36:55.324Z,48.20
2022-10-23T18:39:25.588Z,51.50
2022-10-23T18:41:57.056Z,54.50
2022-10-23T18:44:27.456Z,57.10
2022-10-23T18:46:57.159Z,58.50
2022-10-23T18:49:25.656Z,52.80
2022-10-23T18:51:53.805Z,51.40
2022-10-23T18:54:22.670Z,54.70
2022-10-23T18:56:51.525Z,58.60
2022-10-23T18:59:20.557Z,60.70
2022-10-23T19:01:49.994Z,61.80
2022-10-23T19:04:19.180Z,55.70
2022-10-23T19:06:48.556Z,53.60
2022-10-23T19:09:17.704Z,52.10
2022-10-23T19:11:46.326Z,50.90
2022-10-23T19:14:14.394Z,50.70
2022-10-23T19:16:59.850Z,50.30
2022-10-23T19:19:40.657Z,49.30
2022-10-23T19:22:10.464Z,48.80
2022-10-23T19:24:45.641Z,48.90
2022-10-23T19:27:14.189Z,52.90
2022-10-23T19:29:45.804Z,55.90
2022-10-23T19:32:14.659Z,59.10
2022-10-23T19:34:42.579Z,53.60
2022-10-23T19:37:11.173Z,51.60
2022-10-23T19:39:39.275Z,53.70
2022-10-23T19:42:07.470Z,57.50
2022-10-23T19:44:42.096Z,60.30
2022-10-23T19:47:10.431Z,58.50
2022-10-23T19:49:38.654Z,54.40
2022-10-23T19:52:07.113Z,53.00
2022-10-23T19:54:35.362Z,52.10
2022-10-23T19:57:03.879Z,51.40
2022-10-23T19:59:32.051Z,50.40
2022-10-23T20:02:00.474Z,49.30
2022-10-23T20:04:28.956Z,49.30
2022-10-23T20:06:57.651Z,51.40
2022-10-23T20:09:26.033Z,54.70
2022-10-23T20:11:54.379Z,57.80
2022-10-23T20:14:22.393Z,54.60
2022-10-23T20:16:54.948Z,51.70
2022-10-23T20:19:24.279Z,51.00
2022-10-23T20:21:52.864Z,55.10
2022-10-23T20:24:21.593Z,57.80
2022-10-23T20:26:50.822Z,59.90
2022-10-23T20:29:19.738Z,56.10
2022-10-23T20:31:47.692Z,53.20
2022-10-23T20:34:15.910Z,51.80
2022-10-23T20:36:47.442Z,51.00
2022-10-23T20:39:23.837Z,49.80
2022-10-23T20:41:53.056Z,49.20
2022-10-23T20:44:21.110Z,48.40
2022-10-23T20:46:50.307Z,48.60
2022-10-23T20:49:19.340Z,53.00
2022-10-23T20:51:54.839Z,55.40
2022-10-23T20:54:25.984Z,57.60
2022-10-23T20:56:54.433Z,52.40
2022-10-23T20:59:22.596Z,50.40
2022-10-23T21:01:53.047Z,51.90
2022-10-23T21:04:24.683Z,56.40
2022-10-23T21:07:09.327Z,58.60
2022-10-23T21:09:39.694Z,60.30
2022-10-23T21:12:08.239Z,54.40
2022-10-23T21:14:37.392Z,52.20
2022-10-23T21:17:05.823Z,51.40
2022-10-23T21:19:34.134Z,50.20
2022-10-23T21:22:02.556Z,49.60
2022-10-23T21:24:30.667Z,48.70
2022-10-23T21:26:58.875Z,48.00
2022-10-23T21:29:27.258Z,50.50
2022-10-23T21:31:58.340Z,53.40
2022-10-23T21:34:27.925Z,55.90
2022-10-23T21:37:13.477Z,57.70
2022-10-23T21:39:43.952Z,59.20
2022-10-23T21:42:13.572Z,55.40
2022-10-23T21:44:41.851Z,52.20
2022-10-23T21:47:10.350Z,51.70
2022-10-23T21:49:38.625Z,56.50
2022-10-23T21:52:07.110Z,59.10
2022-10-23T21:54:35.401Z,60.60
2022-10-23T21:57:03.730Z,60.10
2022-10-23T21:59:34.822Z,54.70
2022-10-23T22:02:04.637Z,52.60
2022-10-23T22:04:33.397Z,51.30
2022-10-23T22:07:01.569Z,50.10
2022-10-23T22:09:29.851Z,49.50
2022-10-23T22:11:58.256Z,48.50
2022-10-23T22:14:27.681Z,47.80
2022-10-23T22:16:56.075Z,47.40
2022-10-23T22:19:24.637Z,48.60
2022-10-23T22:21:52.700Z,52.60
2022-10-23T22:24:21.171Z,55.50
2022-10-23T22:26:54.606Z,57.70
2022-10-23T22:29:25.933Z,53.90
2022-10-23T22:31:54.337Z,51.00
2022-10-23T22:34:41.154Z,50.80
2022-10-23T22:37:14.402Z,55.10
2022-10-23T22:39:43.299Z,58.60
2022-10-23T22:42:11.671Z,60.40
2022-10-23T22:44:39.897Z,55.80
2022-10-23T22:47:08.296Z,53.20
2022-10-23T22:49:36.601Z,51.90
2022-10-23T22:52:04.977Z,50.70
2022-10-23T22:54:33.239Z,49.70
2022-10-23T22:57:01.631Z,48.90
2022-10-23T22:59:29.920Z,48.20
2022-10-23T23:01:58.180Z,47.60
2022-10-23T23:04:37.301Z,47.30
2022-10-23T23:07:11.647Z,49.80
2022-10-23T23:09:43.069Z,54.10
2022-10-23T23:12:13.414Z,56.00
2022-10-23T23:14:42.594Z,57.80
2022-10-23T23:17:11.207Z,58.00
2022-10-23T23:19:39.581Z,52.50
2022-10-23T23:22:08.435Z,50.90
2022-10-23T23:24:36.617Z,54.40
2022-10-23T23:27:04.961Z,57.80
2022-10-23T23:29:33.413Z,60.10
2022-10-23T23:32:01.611Z,61.50
2022-10-23T23:34:29.870Z,59.70
2022-10-23T23:36:58.176Z,55.00
2022-10-23T23:39:26.372Z,53.00
2022-10-23T23:41:54.682Z,51.60
2022-10-23T23:44:22.948Z,50.80
2022-10-23T23:46:51.173Z,49.70
2022-10-23T23:49:19.539Z,48.90
2022-10-23T23:51:47.757Z,48.20
2022-10-23T23:54:16.282Z,47.10
2022-10-23T23:56:44.548Z,47.30
2022-10-23T23:59:12.873Z,50.70
